createdAt,value
2022-09-16T00:09:05.564Z,99
2022-09-16T00:19:05.504Z,99
2022-09-16T00:29:05.290Z,99
2022-09-16T00:39:05.294Z,99
2022-09-16T00:49:05.359Z,99
2022-09-16T00:59:08.532Z,99
2022-09-16T01:09:10.871Z,99
2022-09-16T01:19:06.421Z,99
2022-09-16T01:29:05.406Z,99
2022-09-16T01:39:14.227Z,99
2022-09-16T01:49:06.611Z,99
2022-09-16T01:59:05.441Z,99
2022-09-16T02:09:15.717Z,99
2022-09-16T02:19:05.758Z,99
2022-09-16T02:29:11.880Z,99
2022-09-16T02:39:10.516Z,99
2022-09-16T02:51:08.283Z,99
2022-09-16T02:59:29.257Z,99
2022-09-16T03:07:11.695Z,99
2022-09-16T03:10:22.502Z,99
2022-09-16T03:19:10.790Z,99
2022-09-16T03:29:05.788Z,99
2022-09-16T03:39:05.704Z,99
2022-09-16T03:49:06.060Z,99
2022-09-16T03:54:19.863Z,99
2022-09-16T03:59:15.628Z,99
2022-09-16T04:09:10.871Z,99
2022-09-16T04:19:10.778Z,99
2022-09-16T04:29:05.678Z,99
2022-09-16T04:31:41.202Z,99
2022-09-16T04:39:10.724Z,99
2022-09-16T04:49:05.735Z,99
2022-09-16T04:59:05.701Z,99
2022-09-16T05:09:05.747Z,99
2022-09-16T05:19:06.161Z,99
2022-09-16T05:29:16.976Z,99
2022-09-16T05:39:50.846Z,99
2022-09-16T05:42:43.393Z,99
2022-09-16T05:49:06.099Z,99
2022-09-16T05:59:06.098Z,99
2022-09-16T06:09:06.902Z,99
2022-09-16T06:19:06.930Z,99
2022-09-16T06:29:06.117Z,99
2022-09-16T06:39:07.029Z,99
2022-09-16T06:49:08.126Z,99
2022-09-16T06:59:06.022Z,99
2022-09-16T07:09:06.231Z,99
2022-09-16T07:19:06.087Z,99
2022-09-16T07:29:06.201Z,99
2022-09-16T07:39:06.120Z,99
2022-09-16T07:49:07.324Z,99
2022-09-16T07:59:06.206Z,99
2022-09-16T08:09:15.392Z,99
2022-09-16T08:19:08.330Z,99
2022-09-16T08:29:09.248Z,99
2022-09-16T08:39:10.736Z,99
2022-09-16T08:49:08.081Z,99
2022-09-16T08:59:07.909Z,99
2022-09-16T09:09:07.962Z,99
2022-09-16T09:19:33.365Z,99
2022-09-16T09:29:07.914Z,99
2022-09-16T09:39:07.801Z,99
2022-09-16T09:49:40.763Z,99
2022-09-16T09:59:10.659Z,99
2022-09-16T10:09:11.956Z,99
2022-09-16T10:19:08.023Z,99
2022-09-16T10:25:28.850Z,99
2022-09-16T10:29:08.404Z,99
2022-09-16T10:39:07.935Z,99
2022-09-16T10:49:10.686Z,99
2022-09-16T10:59:08.119Z,98
2022-09-16T11:09:08.353Z,94
2022-09-16T11:19:08.059Z,93
2022-09-16T11:29:08.089Z,92
2022-09-16T11:39:08.369Z,91
2022-09-16T11:49:10.531Z,91
2022-09-16T11:59:09.975Z,89
2022-09-16T12:09:11.692Z,89
2022-09-16T12:19:09.988Z,89
2022-09-16T12:29:08.265Z,89
2022-09-16T12:39:08.834Z,89
2022-09-16T12:49:09.507Z,93
2022-09-16T12:59:10.921Z,95
2022-09-16T13:09:10.901Z,97
2022-09-16T13:19:10.059Z,99
2022-09-16T13:29:14.752Z,99
2022-09-16T13:39:09.929Z,99
2022-09-16T13:49:10.071Z,99
2022-09-16T13:59:09.625Z,99
2022-09-16T14:09:09.971Z,99
2022-09-16T14:19:09.649Z,99
2022-09-16T14:29:11.990Z,99
2022-09-16T14:39:11.578Z,99
2022-09-16T14:43:08.359Z,99
2022-09-16T14:45:26.152Z,99
2022-09-16T14:49:09.704Z,99
2022-09-16T14:59:10.823Z,99
2022-09-16T15:09:09.826Z,99
2022-09-16T15:19:11.615Z,99
2022-09-16T15:29:10.350Z,99
2022-09-16T15:39:10.241Z,99
2022-09-16T15:49:09.897Z,99
2022-09-16T15:59:10.929Z,99
2022-09-16T16:09:14.979Z,99
2022-09-16T16:19:43.423Z,99
2022-09-16T16:29:11.911Z,99
2022-09-16T16:39:12.109Z,99
2022-09-16T16:49:11.115Z,99
2022-09-16T16:59:09.854Z,99
2022-09-16T17:09:13.657Z,99
2022-09-16T17:19:09.966Z,99
2022-09-16T17:29:15.571Z,99
2022-09-16T17:39:11.594Z,99
2022-09-16T17:49:13.126Z,99
2022-09-16T17:59:10.005Z,99
2022-09-16T18:09:13.368Z,99
2022-09-16T18:19:10.049Z,99
2022-09-16T18:29:11.447Z,99
2022-09-16T18:39:10.277Z,99
2022-09-16T18:49:11.376Z,99
2022-09-16T18:59:27.629Z,99
2022-09-16T19:02:48.053Z,99
2022-09-16T19:09:10.172Z,99
2022-09-16T19:19:10.098Z,99
2022-09-16T19:30:20.474Z,99
2022-09-16T19:31:11.251Z,99
2022-09-16T19:39:18.619Z,99
2022-09-16T19:49:15.277Z,99
2022-09-16T19:59:10.213Z,99
2022-09-16T20:09:10.695Z,99
2022-09-16T20:19:11.312Z,99
2022-09-16T20:29:25.493Z,99
2022-09-16T20:39:12.188Z,99
2022-09-16T20:49:12.662Z,99
2022-09-16T20:59:15.244Z,99
2022-09-16T21:09:11.366Z,99
2022-09-16T21:19:10.745Z,99
2022-09-16T21:29:14.158Z,99
2022-09-16T21:39:28.553Z,99
2022-09-16T21:49:25.217Z,99
2022-09-16T21:59:11.831Z,99
2022-09-16T22:09:22.280Z,99
2022-09-16T22:19:10.356Z,99
2022-09-16T22:29:10.495Z,99
2022-09-16T22:39:10.384Z,99
2022-09-16T22:49:36.070Z,99
2022-09-16T22:59:27.493Z,99
2022-09-16T23:09:17.580Z,99
2022-09-16T23:19:37.318Z,99
2022-09-16T23:29:24.230Z,99
2022-09-16T23:39:12.565Z,99
2022-09-16T23:49:13.085Z,99
2022-09-16T23:59:25.167Z,99
